Bible School Park, New York
Current Conditions -  °F | °C
As of 7:53 PM on Monday 26 Jan 2015 (Local Time) from KBGM Reporting Station
Light Snow Light Snow  
Wind Chill:   Ceiling: 4100
Heat Index: 16°   Visibility: 4mi
Dew Point: 13°   Wind: 7mph
Humidity: 88%   Direction: 50°NE
Pressure: 29.8"   Gusts: NA
Location:  42.11°N, 75.97°W
Report Text: KBGM 270053Z 05006KT 4SM -SN BR OVC041 M09/M11 A2980 RMK AO2 SNB04 SLP124 P0000 T10891106
Loading
Personal Weather Stations






























Interactive Weather Map New forecast layout! Learn more

10-Day Weather Forecast

Advertisements
Track Severe Weather on mobile